createdAt,value
2023-05-05T00:01:02.438Z,100410.72
2023-05-05T00:03:29.241Z,100408.75
2023-05-05T00:05:55.796Z,100406.09
2023-05-05T00:08:24.820Z,100409.72
2023-05-05T00:10:56.031Z,100415.03
2023-05-05T00:13:22.394Z,100409.72
2023-05-05T00:15:50.281Z,100409.47
2023-05-05T00:18:17.778Z,100404.44
2023-05-05T00:20:47.008Z,100401.78
2023-05-05T00:23:14.216Z,100412.13
2023-05-05T00:25:40.862Z,100415.88
2023-05-05T00:28:07.252Z,100408.06
2023-05-05T00:30:34.680Z,100411.69
2023-05-05T00:33:03.770Z,100411.69
2023-05-05T00:35:30.390Z,100411.97
2023-05-05T00:37:57.031Z,100406.66
2023-05-05T00:40:23.582Z,100413.09
2023-05-05T00:42:53.430Z,100408.63
2023-05-05T00:45:21.361Z,100412.38
2023-05-05T00:47:49.544Z,100404.72
2023-05-05T00:50:26.161Z,100401.66
2023-05-05T00:52:56.120Z,100394.13
2023-05-05T00:55:22.730Z,100401.66
2023-05-05T00:57:49.674Z,100396.66
2023-05-05T01:00:16.809Z,100388.13
2023-05-05T01:02:44.231Z,100386.03
2023-05-05T01:05:13.282Z,100391.03
2023-05-05T01:08:05.937Z,100389.66
2023-05-05T01:10:44.279Z,100384.63
2023-05-05T01:13:28.217Z,100393.00
2023-05-05T01:16:27.418Z,100388.84
2023-05-05T01:19:29.695Z,100379.59
2023-05-05T01:22:02.213Z,100389.91
2023-05-05T01:24:59.202Z,100390.75
2023-05-05T01:28:15.691Z,100384.91
2023-05-05T01:31:11.374Z,100389.53
2023-05-05T01:33:46.142Z,100399.00
2023-05-05T01:36:22.965Z,100391.34
2023-05-05T01:38:56.337Z,100401.53
2023-05-05T01:41:32.890Z,100415.44
2023-05-05T01:44:03.320Z,100413.38
2023-05-05T01:46:34.180Z,100421.44
2023-05-05T01:49:00.835Z,100418.66
2023-05-05T01:51:28.759Z,100423.13
2023-05-05T01:54:00.602Z,100421.44
2023-05-05T01:56:28.245Z,100427.28
2023-05-05T01:58:56.158Z,100427.84
2023-05-05T02:01:27.644Z,100430.34
2023-05-05T02:03:58.987Z,100432.25
2023-05-05T02:06:29.716Z,100444.50
2023-05-05T02:08:58.309Z,100444.22
2023-05-05T02:11:28.031Z,100447.84
2023-05-05T02:13:55.747Z,100455.19
2023-05-05T02:16:23.602Z,100458.81
2023-05-05T02:18:54.431Z,100456.72
2023-05-05T02:21:21.309Z,100450.44
2023-05-05T02:23:51.916Z,100456.72
2023-05-05T02:26:24.555Z,100459.34
2023-05-05T02:29:02.113Z,100445.03
2023-05-05T02:31:31.042Z,100447.56
2023-05-05T02:33:59.973Z,100453.69
2023-05-05T02:36:29.550Z,100460.91
2023-05-05T02:39:01.194Z,100459.03
2023-05-05T02:41:32.903Z,100470.00
2023-05-05T02:44:02.424Z,100460.66
2023-05-05T02:46:28.962Z,100458.28
2023-05-05T02:48:55.474Z,100471.09
2023-05-05T02:51:21.858Z,100473.53
2023-05-05T02:53:48.474Z,100470.47
2023-05-05T02:56:41.234Z,100468.19
2023-05-05T02:59:36.556Z,100478.66
2023-05-05T03:02:18.169Z,100474.56
2023-05-05T03:04:56.821Z,100471.22
2023-05-05T03:07:31.701Z,100471.50
2023-05-05T03:10:02.924Z,100470.31
2023-05-05T03:12:39.869Z,100481.16
2023-05-05T03:15:11.882Z,100467.50
2023-05-05T03:17:40.283Z,100473.34
2023-05-05T03:20:08.121Z,100470.47
2023-05-05T03:22:37.872Z,100459.66
2023-05-05T03:25:05.230Z,100463.25
2023-05-05T03:27:31.865Z,100472.72
2023-05-05T03:29:58.337Z,100473.72
2023-05-05T03:32:24.802Z,100470.78
2023-05-05T03:34:51.267Z,100473.25
2023-05-05T03:37:17.604Z,100479.63
2023-05-05T03:39:43.993Z,100466.22
2023-05-05T03:42:10.483Z,100474.63
2023-05-05T03:44:37.039Z,100476.84
2023-05-05T03:47:03.461Z,100472.81
2023-05-05T03:49:29.916Z,100466.88
2023-05-05T03:51:58.793Z,100484.25
2023-05-05T03:54:25.411Z,100487.16
2023-05-05T03:56:51.749Z,100491.63
2023-05-05T03:59:18.132Z,100505.78
2023-05-05T04:01:46.968Z,100502.19
2023-05-05T04:04:13.475Z,100503.16
2023-05-05T04:06:40.032Z,100486.31
2023-05-05T04:09:06.550Z,100499.41
2023-05-05T04:11:33.088Z,100485.75
2023-05-05T04:14:02.297Z,100498.03
2023-05-05T04:16:28.896Z,100502.47
2023-05-05T04:18:55.450Z,100504.69
2023-05-05T04:21:21.973Z,100494.25
2023-05-05T04:23:48.959Z,100494.75
2023-05-05T04:26:15.494Z,100503.31
2023-05-05T04:28:41.973Z,100508.88
2023-05-05T04:31:08.675Z,100515.41
2023-05-05T04:33:35.110Z,100513.03
2023-05-05T04:36:01.542Z,100515.19
2023-05-05T04:38:28.245Z,100518.53
2023-05-05T04:40:54.715Z,100527.06
2023-05-05T04:43:21.085Z,100514.94
2023-05-05T04:45:54.499Z,100523.06
2023-05-05T04:48:23.307Z,100521.69
2023-05-05T04:50:49.654Z,100531.16
2023-05-05T04:53:16.971Z,100534.97
2023-05-05T04:55:43.439Z,100541.16
2023-05-05T04:58:17.379Z,100539.66
2023-05-05T05:00:43.734Z,100548.16
2023-05-05T05:03:12.294Z,100540.09
2023-05-05T05:05:38.819Z,100539.06
2023-05-05T05:08:05.540Z,100537.66
2023-05-05T05:10:35.001Z,100542.16
2023-05-05T05:13:01.729Z,100539.78
2023-05-05T05:15:28.116Z,100543.44
2023-05-05T05:17:54.910Z,100538.28
2023-05-05T05:20:24.253Z,100539.41
2023-05-05T05:22:50.951Z,100535.88
2023-05-05T05:25:17.453Z,100539.28
2023-05-05T05:27:44.142Z,100538.97
2023-05-05T05:30:11.616Z,100549.84
2023-05-05T05:32:40.409Z,100533.25
2023-05-05T05:35:07.187Z,100530.38
2023-05-05T05:37:36.716Z,100537.16
2023-05-05T05:40:05.078Z,100539.28
2023-05-05T05:42:31.571Z,100538.22
2023-05-05T05:45:00.926Z,100532.31
2023-05-05T05:47:28.013Z,100529.50
2023-05-05T05:49:54.537Z,100528.16
2023-05-05T05:52:20.902Z,100538.78
2023-05-05T05:54:47.356Z,100551.91
2023-05-05T05:57:16.624Z,100545.66
2023-05-05T05:59:45.327Z,100556.16
2023-05-05T06:02:12.102Z,100547.25
2023-05-05T06:04:38.739Z,100553.78
2023-05-05T06:07:08.361Z,100557.09
2023-05-05T06:09:34.691Z,100564.63
2023-05-05T06:12:03.741Z,100554.97
2023-05-05T06:14:30.334Z,100554.69
2023-05-05T06:16:56.718Z,100554.44
2023-05-05T06:19:23.250Z,100553.22
2023-05-05T06:21:51.972Z,100541.91
2023-05-05T06:24:20.899Z,100542.59
2023-05-05T06:26:47.402Z,100538.28
2023-05-05T06:29:13.828Z,100542.59
2023-05-05T06:31:40.365Z,100549.22
2023-05-05T06:34:07.183Z,100553.56
2023-05-05T06:36:33.565Z,100565.22
2023-05-05T06:39:00.032Z,100559.88
2023-05-05T06:41:28.809Z,100565.22
2023-05-05T06:43:55.128Z,100571.75
2023-05-05T06:46:21.580Z,100559.13
2023-05-05T06:48:48.177Z,100557.63
2023-05-05T06:51:15.507Z,100557.63
2023-05-05T06:53:41.938Z,100567.00
2023-05-05T06:56:11.508Z,100559.50
2023-05-05T06:58:37.932Z,100551.66
2023-05-05T07:01:05.079Z,100542.44
2023-05-05T07:03:31.856Z,100547.16
2023-05-05T07:06:00.775Z,100547.88
2023-05-05T07:08:27.219Z,100540.75
2023-05-05T07:10:53.667Z,100546.63
2023-05-05T07:13:20.184Z,100551.19
2023-05-05T07:15:46.680Z,100541.13
2023-05-05T07:18:16.756Z,100535.66
2023-05-05T07:20:46.767Z,100536.69
2023-05-05T07:23:15.965Z,100535.72
2023-05-05T07:25:42.547Z,100553.06
2023-05-05T07:28:09.062Z,100541.00
2023-05-05T07:30:35.402Z,100521.41
2023-05-05T07:33:01.804Z,100554.03
2023-05-05T07:35:28.536Z,100534.25
2023-05-05T07:37:54.878Z,100538.41
2023-05-05T07:40:21.467Z,100531.03
2023-05-05T07:42:48.125Z,100520.00
2023-05-05T07:45:17.164Z,100521.50
2023-05-05T07:47:43.762Z,100517.84
2023-05-05T07:50:13.218Z,100529.91
2023-05-05T07:55:14.358Z,100521.31
2023-05-05T07:57:41.014Z,100516.75
2023-05-05T08:00:08.226Z,100518.16
2023-05-05T08:02:35.336Z,100520.50
2023-05-05T08:05:01.770Z,100509.81
2023-05-05T08:07:28.255Z,100503.53
2023-05-05T08:09:56.118Z,100495.22
2023-05-05T08:12:22.464Z,100490.53
2023-05-05T08:14:48.816Z,100496.69
2023-05-05T08:17:16.223Z,100485.25
2023-05-05T08:19:42.922Z,100503.75
2023-05-05T08:22:09.271Z,100494.09
2023-05-05T08:24:36.248Z,100502.59
2023-05-05T08:27:03.654Z,100496.00
2023-05-05T08:29:30.404Z,100503.91
2023-05-05T08:31:57.322Z,100499.94
2023-05-05T08:34:23.854Z,100469.47
2023-05-05T08:36:50.927Z,100473.63
2023-05-05T08:39:17.508Z,100468.06
2023-05-05T08:41:43.901Z,100482.09
2023-05-05T08:44:10.402Z,100474.84
2023-05-05T08:46:42.909Z,100468.81
2023-05-05T08:49:15.847Z,100483.94
2023-05-05T08:51:44.408Z,100484.28
2023-05-05T08:54:17.625Z,100483.34
2023-05-05T08:56:48.217Z,100469.69
2023-05-05T08:59:15.548Z,100490.22
2023-05-05T09:01:42.810Z,100486.09
2023-05-05T09:04:09.650Z,100486.44
2023-05-05T09:06:37.108Z,100490.75
2023-05-05T09:09:03.730Z,100497.34
2023-05-05T09:11:30.630Z,100476.78
2023-05-05T09:13:57.136Z,100486.66
2023-05-05T09:16:26.120Z,100485.56
2023-05-05T09:19:02.387Z,100474.78
2023-05-05T09:21:29.223Z,100473.25
2023-05-05T09:24:12.515Z,100455.75
2023-05-05T09:26:43.290Z,100459.88
2023-05-05T09:29:10.338Z,100463.38
2023-05-05T09:31:37.565Z,100485.34
2023-05-05T09:34:17.117Z,100478.25
2023-05-05T09:36:48.352Z,100461.97
2023-05-05T09:39:19.679Z,100476.44
2023-05-05T09:41:47.062Z,100452.31
2023-05-05T09:44:21.444Z,100473.19
2023-05-05T09:46:52.792Z,100458.38
2023-05-05T09:49:23.026Z,100462.59
2023-05-05T09:51:49.642Z,100465.72
2023-05-05T09:54:27.464Z,100472.88
2023-05-05T09:56:55.490Z,100452.50
2023-05-05T09:59:23.313Z,100473.50
2023-05-05T10:01:50.809Z,100474.59
2023-05-05T10:04:30.710Z,100461.22
2023-05-05T10:06:58.319Z,100460.69
2023-05-05T10:09:31.687Z,100464.03
2023-05-05T10:12:01.818Z,100458.63
2023-05-05T10:14:32.372Z,100463.66
2023-05-05T10:17:01.668Z,100469.63
2023-05-05T10:19:32.741Z,100454.09
2023-05-05T10:22:08.293Z,100462.00
2023-05-05T10:24:39.601Z,100459.44
2023-05-05T10:27:17.144Z,100457.00
2023-05-05T10:29:57.496Z,100448.81
2023-05-05T10:32:53.571Z,100453.38
2023-05-05T10:35:27.555Z,100458.94
2023-05-05T10:37:54.917Z,100438.44
2023-05-05T10:40:25.267Z,100449.03
2023-05-05T10:42:54.649Z,100444.44
2023-05-05T10:45:21.086Z,100448.75
2023-05-05T10:47:50.623Z,100429.91
2023-05-05T10:50:32.272Z,100420.28
2023-05-05T10:53:23.529Z,100421.25
2023-05-05T10:56:21.453Z,100406.41
2023-05-05T10:58:59.033Z,100417.06
2023-05-05T11:01:33.782Z,100399.59
2023-05-05T11:04:20.120Z,100399.28
2023-05-05T11:07:10.314Z,100410.06
2023-05-05T11:10:04.220Z,100408.19
2023-05-05T11:12:32.486Z,100402.19
2023-05-05T11:15:26.726Z,100417.72
2023-05-05T11:18:06.659Z,100406.97
2023-05-05T11:20:40.027Z,100406.34
2023-05-05T11:23:07.343Z,100416.28
2023-05-05T11:25:40.928Z,100401.59
2023-05-05T11:28:14.654Z,100387.69
2023-05-05T11:30:59.510Z,100389.38
2023-05-05T11:33:30.889Z,100379.63
2023-05-05T11:36:03.428Z,100395.56
2023-05-05T11:39:17.493Z,100388.13
2023-05-05T11:42:10.390Z,100391.66
2023-05-05T11:44:40.163Z,100383.75
2023-05-05T11:47:06.497Z,100369.28
2023-05-05T11:49:36.864Z,100385.44
2023-05-05T11:52:06.423Z,100382.94
2023-05-05T11:54:35.094Z,100378.81
2023-05-05T11:57:08.063Z,100379.00
2023-05-05T11:59:51.487Z,100383.78
2023-05-05T12:02:19.346Z,100391.22
2023-05-05T12:04:46.914Z,100380.88
2023-05-05T12:07:22.518Z,100368.47
2023-05-05T12:09:50.132Z,100360.59
2023-05-05T12:12:17.571Z,100368.06
2023-05-05T12:14:52.474Z,100357.69
2023-05-05T12:17:23.094Z,100366.59
2023-05-05T12:19:51.928Z,100361.78
2023-05-05T12:22:28.036Z,100360.50
2023-05-05T12:24:58.953Z,100359.69
2023-05-05T12:27:27.533Z,100359.03
2023-05-05T12:29:56.649Z,100352.56
2023-05-05T12:32:25.190Z,100352.16
2023-05-05T12:34:57.536Z,100345.50
2023-05-05T12:37:25.938Z,100351.91
2023-05-05T12:39:54.710Z,100357.28
2023-05-05T12:42:22.352Z,100355.72
2023-05-05T12:44:49.146Z,100348.44
2023-05-05T12:47:30.407Z,100348.28
2023-05-05T12:49:57.639Z,100343.03
2023-05-05T12:52:24.044Z,100346.38
2023-05-05T12:55:02.180Z,100326.59
2023-05-05T12:57:28.630Z,100321.63
2023-05-05T12:59:55.412Z,100326.03
2023-05-05T13:02:33.431Z,100321.91
2023-05-05T13:04:59.928Z,100313.00
2023-05-05T13:07:26.478Z,100305.94
2023-05-05T13:10:07.943Z,100308.84
2023-05-05T13:12:34.336Z,100307.19
2023-05-05T13:15:00.754Z,100292.13
2023-05-05T13:17:27.182Z,100288.59
2023-05-05T13:19:53.558Z,100284.88
2023-05-05T13:22:20.129Z,100295.84
2023-05-05T13:24:52.332Z,100290.66
2023-05-05T13:27:22.598Z,100288.56
2023-05-05T13:29:49.229Z,100276.13
2023-05-05T13:32:18.003Z,100280.63
2023-05-05T13:34:46.812Z,100280.66
2023-05-05T13:37:13.236Z,100274.06
2023-05-05T13:39:39.732Z,100272.78
2023-05-05T13:42:06.085Z,100269.94
2023-05-05T13:44:32.550Z,100279.84
2023-05-05T13:47:01.554Z,100268.28
2023-05-05T13:49:30.261Z,100267.47
2023-05-05T13:51:57.031Z,100261.06
2023-05-05T13:54:23.370Z,100275.56
2023-05-05T13:56:49.882Z,100268.34
2023-05-05T13:59:16.238Z,100264.59
2023-05-05T14:01:42.643Z,100257.16
2023-05-05T14:04:09.187Z,100255.88
2023-05-05T14:06:38.266Z,100258.38
2023-05-05T14:09:06.235Z,100238.16
2023-05-05T14:11:32.935Z,100229.25
2023-05-05T14:13:59.407Z,100237.28
2023-05-05T14:16:25.911Z,100235.63
2023-05-05T14:18:52.340Z,100241.00
2023-05-05T14:21:19.235Z,100233.16
2023-05-05T14:23:48.005Z,100220.34
2023-05-05T14:26:14.465Z,100230.69
2023-05-05T14:28:42.173Z,100224.03
2023-05-05T14:31:08.697Z,100236.03
2023-05-05T14:33:35.082Z,100217.25
2023-05-05T14:36:01.602Z,100233.56
2023-05-05T14:38:33.047Z,100242.06
2023-05-05T14:40:59.511Z,100224.47
2023-05-05T14:43:28.708Z,100234.59
2023-05-05T14:45:55.194Z,100236.03
2023-05-05T14:48:22.290Z,100232.06
2023-05-05T14:50:51.353Z,100241.59
2023-05-05T14:53:18.981Z,100235.19
2023-05-05T14:55:45.403Z,100236.19
2023-05-05T14:58:12.570Z,100230.63
2023-05-05T15:00:39.132Z,100222.53
2023-05-05T15:03:05.604Z,100218.63
2023-05-05T15:05:32.394Z,100230.78
2023-05-05T15:08:01.395Z,100235.50
2023-05-05T15:10:27.769Z,100235.50
2023-05-05T15:12:54.282Z,100244.13
2023-05-05T15:15:20.709Z,100230.28
2023-05-05T15:17:47.253Z,100230.06
2023-05-05T15:20:13.958Z,100236.03
2023-05-05T15:22:40.390Z,100224.63
2023-05-05T15:25:10.751Z,100241.72
2023-05-05T15:27:38.061Z,100236.91
2023-05-05T15:30:05.926Z,100232.97
2023-05-05T15:32:32.738Z,100225.44
2023-05-05T15:34:59.244Z,100234.28
2023-05-05T15:37:25.683Z,100259.78
2023-05-05T15:39:55.419Z,100262.38
2023-05-05T15:42:21.923Z,100265.63
2023-05-05T15:44:48.546Z,100294.16
2023-05-05T15:47:14.981Z,100288.88
2023-05-05T15:49:41.472Z,100296.22
2023-05-05T15:52:08.043Z,100312.00
2023-05-05T15:54:37.013Z,100340.84
2023-05-05T15:57:03.630Z,100379.97
2023-05-05T15:59:30.230Z,100410.47
2023-05-05T16:01:58.815Z,100439.94
2023-05-05T16:04:30.664Z,100455.66
2023-05-05T16:06:59.694Z,100471.44
2023-05-05T16:09:26.076Z,100483.78
2023-05-05T16:11:55.334Z,100477.84
2023-05-05T16:14:24.397Z,100478.59
2023-05-05T16:16:50.764Z,100488.44
2023-05-05T16:19:18.092Z,100480.38
2023-05-05T16:21:48.156Z,100468.16
2023-05-05T16:24:16.473Z,100467.44
2023-05-05T16:26:43.606Z,100485.13
2023-05-05T16:29:10.521Z,100468.16
2023-05-05T16:31:36.960Z,100456.75
2023-05-05T16:34:04.580Z,100464.97
2023-05-05T16:36:31.215Z,100466.03
2023-05-05T16:38:58.112Z,100464.13
2023-05-05T16:41:25.975Z,100475.38
2023-05-05T16:43:55.380Z,100468.38
2023-05-05T16:46:21.799Z,100466.03
2023-05-05T16:48:48.284Z,100478.63
2023-05-05T16:51:17.271Z,100479.22
2023-05-05T16:53:47.146Z,100485.16
2023-05-05T16:56:15.503Z,100480.94
2023-05-05T16:58:41.836Z,100476.78
2023-05-05T17:01:08.356Z,100477.72
2023-05-05T17:03:34.986Z,100473.41
2023-05-05T17:06:01.405Z,100468.09
2023-05-05T17:08:28.004Z,100458.63
2023-05-05T17:10:55.123Z,100453.84
2023-05-05T17:13:26.125Z,100456.63
2023-05-05T17:15:52.538Z,100459.69
2023-05-05T17:18:21.143Z,100449.50
2023-05-05T17:20:49.460Z,100455.63
2023-05-05T17:23:16.593Z,100441.75
2023-05-05T17:25:43.818Z,100445.00
2023-05-05T17:28:10.448Z,100448.66
2023-05-05T17:30:37.536Z,100441.22
2023-05-05T17:33:06.183Z,100452.13
2023-05-05T17:35:32.818Z,100447.88
2023-05-05T17:38:01.840Z,100455.78
2023-05-05T17:40:28.426Z,100462.91
2023-05-05T17:42:54.830Z,100472.63
2023-05-05T17:45:21.330Z,100463.81
2023-05-05T17:47:49.581Z,100468.75
2023-05-05T17:50:16.032Z,100475.75
2023-05-05T17:52:43.840Z,100469.06
2023-05-05T17:55:10.945Z,100471.34
2023-05-05T17:57:37.990Z,100457.66
2023-05-05T18:00:06.031Z,100471.47
2023-05-05T18:02:32.718Z,100468.28
2023-05-05T18:05:01.699Z,100472.22
2023-05-05T18:07:28.363Z,100467.69
2023-05-05T18:09:55.690Z,100475.94
2023-05-05T18:12:24.359Z,100484.75
2023-05-05T18:14:50.726Z,100484.19
2023-05-05T18:17:18.671Z,100486.16
2023-05-05T18:19:47.251Z,100488.94
2023-05-05T18:22:14.949Z,100485.91
2023-05-05T18:24:41.305Z,100482.72
2023-05-05T18:27:07.741Z,100480.63
2023-05-05T18:29:35.146Z,100483.97
2023-05-05T18:32:01.920Z,100477.16
2023-05-05T18:34:29.503Z,100487.06
2023-05-05T18:36:58.683Z,100496.00
2023-05-05T18:39:25.695Z,100496.31
2023-05-05T18:41:54.422Z,100494.06
2023-05-05T18:44:20.820Z,100509.16
2023-05-05T18:46:48.561Z,100509.44
2023-05-05T18:49:15.232Z,100511.41
2023-05-05T18:51:41.692Z,100501.09
2023-05-05T18:54:08.158Z,100507.53
2023-05-05T18:56:34.749Z,100511.16
2023-05-05T18:59:01.297Z,100517.31
2023-05-05T19:01:27.827Z,100517.59
2023-05-05T19:03:54.287Z,100521.50
2023-05-05T19:06:23.150Z,100520.66
2023-05-05T19:08:49.759Z,100521.78
2023-05-05T19:11:18.479Z,100525.41
2023-05-05T19:13:45.291Z,100524.59
2023-05-05T19:16:14.552Z,100529.06
2023-05-05T19:18:45.822Z,100529.34
2023-05-05T19:21:14.568Z,100532.00
2023-05-05T19:23:40.970Z,100530.47
2023-05-05T19:26:07.345Z,100536.75
2023-05-05T19:28:33.890Z,100539.25
2023-05-05T19:31:00.314Z,100543.00
2023-05-05T19:33:27.062Z,100542.47
2023-05-05T19:35:56.513Z,100550.00
2023-05-05T19:38:25.032Z,100545.78
2023-05-05T19:40:54.059Z,100547.47
2023-05-05T19:43:20.393Z,100543.72
2023-05-05T19:45:49.198Z,100546.09
2023-05-05T19:48:16.211Z,100543.56
2023-05-05T19:50:42.620Z,100552.22
2023-05-05T19:53:14.308Z,100544.53
2023-05-05T19:55:40.800Z,100546.63
2023-05-05T19:58:07.142Z,100554.72
2023-05-05T20:00:38.487Z,100555.84
2023-05-05T20:03:04.946Z,100554.72
2023-05-05T20:05:31.434Z,100553.75
2023-05-05T20:07:57.791Z,100553.47
2023-05-05T20:10:26.586Z,100558.06
2023-05-05T20:12:57.924Z,100554.19
2023-05-05T20:15:24.367Z,100550.94
2023-05-05T20:17:50.791Z,100539.50
2023-05-05T20:20:22.202Z,100542.47
2023-05-05T20:22:49.282Z,100542.16
2023-05-05T20:25:18.612Z,100540.50
2023-05-05T20:27:45.740Z,100546.78
2023-05-05T20:30:15.154Z,100545.69
2023-05-05T20:32:41.648Z,100546.38
2023-05-05T20:35:08.968Z,100551.69
2023-05-05T20:37:35.500Z,100557.28
2023-05-05T20:40:04.226Z,100553.94
2023-05-05T20:42:30.707Z,100556.81
2023-05-05T20:44:57.570Z,100558.78
2023-05-05T20:47:24.280Z,100564.78
2023-05-05T20:49:53.267Z,100563.94
2023-05-05T20:52:19.933Z,100563.94
2023-05-05T20:54:49.582Z,100571.50
2023-05-05T20:57:15.906Z,100578.88
2023-05-05T20:59:42.272Z,100578.31
2023-05-05T21:02:11.026Z,100579.84
2023-05-05T21:04:37.577Z,100578.75
2023-05-05T21:07:04.076Z,100580.69
2023-05-05T21:09:31.353Z,100576.91
2023-05-05T21:11:57.701Z,100575.41
2023-05-05T21:14:24.381Z,100576.38
2023-05-05T21:16:50.900Z,100575.13
2023-05-05T21:19:17.410Z,100573.72
2023-05-05T21:21:44.216Z,100575.66
2023-05-05T21:24:12.844Z,100572.56
2023-05-05T21:26:43.230Z,100571.47
2023-05-05T21:29:09.710Z,100568.09
2023-05-05T21:31:40.809Z,100564.06
2023-05-05T21:34:07.250Z,100568.66
2023-05-05T21:36:34.184Z,100560.31
2023-05-05T21:39:00.851Z,100561.81
2023-05-05T21:41:27.194Z,100565.03
2023-05-05T21:43:56.258Z,100561.38
2023-05-05T21:46:22.861Z,100558.59
2023-05-05T21:48:49.452Z,100561.38
2023-05-05T21:51:16.117Z,100566.94
2023-05-05T21:53:42.674Z,100562.19
2023-05-05T21:56:09.135Z,100567.75
2023-05-05T21:58:35.691Z,100565.38
2023-05-05T22:01:02.406Z,100571.34
2023-05-05T22:03:31.325Z,100566.72
2023-05-05T22:05:57.959Z,100555.19
2023-05-05T22:08:24.354Z,100562.41
2023-05-05T22:10:50.826Z,100569.38
2023-05-05T22:13:19.480Z,100562.94
2023-05-05T22:15:47.439Z,100568.81
2023-05-05T22:18:15.025Z,100570.34
2023-05-05T22:20:41.497Z,100566.28
2023-05-05T22:23:08.059Z,100566.56
2023-05-05T22:25:34.979Z,100572.38
2023-05-05T22:28:01.466Z,100574.34
2023-05-05T22:30:27.889Z,100574.63
2023-05-05T22:32:54.925Z,100573.44
2023-05-05T22:35:23.769Z,100569.00
2023-05-05T22:37:50.339Z,100570.88
2023-05-05T22:40:16.856Z,100569.72
2023-05-05T22:42:43.358Z,100577.50
2023-05-05T22:45:10.313Z,100567.97
2023-05-05T22:47:37.198Z,100565.16
2023-05-05T22:50:03.708Z,100568.63
2023-05-05T22:52:30.545Z,100566.63
2023-05-05T22:54:59.224Z,100559.50
2023-05-05T22:57:25.682Z,100572.84
2023-05-05T22:59:52.405Z,100573.56
2023-05-05T23:02:18.800Z,100568.41
2023-05-05T23:04:45.470Z,100574.53
2023-05-05T23:07:12.736Z,100574.53
2023-05-05T23:09:39.632Z,100572.38
2023-05-05T23:12:08.487Z,100570.25
2023-05-05T23:14:35.914Z,100574.16
2023-05-05T23:17:02.377Z,100575.47
2023-05-05T23:19:29.139Z,100567.22
2023-05-05T23:22:00.335Z,100575.13
2023-05-05T23:24:27.733Z,100572.06
2023-05-05T23:26:54.704Z,100562.94
2023-05-05T23:29:21.247Z,100572.09
2023-05-05T23:31:50.326Z,100566.09
2023-05-05T23:34:19.166Z,100567.78
2023-05-05T23:36:45.590Z,100568.03
2023-05-05T23:39:14.544Z,100565.16
2023-05-05T23:41:40.957Z,100563.22
2023-05-05T23:44:07.449Z,100570.44
2023-05-05T23:46:33.931Z,100560.13
2023-05-05T23:49:01.938Z,100563.34
2023-05-05T23:51:28.390Z,100568.03
2023-05-05T23:53:57.156Z,100573.53
2023-05-05T23:56:24.480Z,100567.09
2023-05-05T23:58:52.324Z,100566.50
